createdAt,value
2023-03-22T00:02:05.360Z,100683.22
2023-03-22T00:04:32.630Z,100675.59
2023-03-22T00:06:59.597Z,100684.78
2023-03-22T00:09:26.103Z,100673.56
2023-03-22T00:11:52.572Z,100678.41
2023-03-22T00:14:19.214Z,100672.66
2023-03-22T00:16:49.297Z,100675.28
2023-03-22T00:19:17.426Z,100660.84
2023-03-22T00:21:44.702Z,100673.41
2023-03-22T00:24:11.264Z,100668.94
2023-03-22T00:26:37.864Z,100670.19
2023-03-22T00:29:04.490Z,100666.78
2023-03-22T00:31:31.200Z,100668.31
2023-03-22T00:33:57.687Z,100666.31
2023-03-22T00:36:24.158Z,100656.53
2023-03-22T00:38:51.762Z,100659.97
2023-03-22T00:41:21.271Z,100653.66
2023-03-22T00:43:48.953Z,100656.91
2023-03-22T00:46:17.073Z,100658.53
2023-03-22T00:48:44.097Z,100648.22
2023-03-22T00:51:11.265Z,100646.44
2023-03-22T00:53:39.849Z,100649.50
2023-03-22T00:56:08.463Z,100640.63
2023-03-22T00:58:35.750Z,100629.97
2023-03-22T01:01:02.306Z,100632.59
2023-03-22T01:03:28.956Z,100620.75
2023-03-22T01:05:55.573Z,100621.94
2023-03-22T01:08:23.501Z,100626.09
2023-03-22T01:10:50.737Z,100623.75
2023-03-22T01:13:18.137Z,100617.78
2023-03-22T01:15:45.137Z,100616.31
2023-03-22T01:18:11.688Z,100611.25
2023-03-22T01:20:38.612Z,100610.56
2023-03-22T01:23:05.388Z,100608.47
2023-03-22T01:25:31.961Z,100596.53
2023-03-22T01:27:58.941Z,100601.38
2023-03-22T01:30:25.973Z,100600.41
2023-03-22T01:32:52.564Z,100596.13
2023-03-22T01:35:19.207Z,100603.16
2023-03-22T01:37:45.836Z,100599.63
2023-03-22T01:40:14.787Z,100594.03
2023-03-22T01:42:41.639Z,100584.84
2023-03-22T01:45:14.367Z,100583.75
2023-03-22T01:47:52.184Z,100574.63
2023-03-22T01:50:19.935Z,100570.81
2023-03-22T01:52:47.464Z,100567.53
2023-03-22T01:55:14.150Z,100565.25
2023-03-22T01:57:42.203Z,100565.25
2023-03-22T02:00:15.942Z,100562.09
2023-03-22T02:02:44.061Z,100547.81
2023-03-22T02:05:12.254Z,100552.56
2023-03-22T02:07:41.097Z,100554.19
2023-03-22T02:10:16.856Z,100546.22
2023-03-22T02:12:50.764Z,100554.19
2023-03-22T02:15:20.580Z,100543.03
2023-03-22T02:18:16.640Z,100539.50
2023-03-22T02:20:47.082Z,100533.59
2023-03-22T02:23:30.319Z,100525.84
2023-03-22T02:26:41.611Z,100531.94
2023-03-22T02:29:31.464Z,100518.97
2023-03-22T02:32:23.134Z,100522.91
2023-03-22T02:35:07.918Z,100527.28
2023-03-22T02:38:04.903Z,100514.97
2023-03-22T02:40:50.553Z,100511.06
2023-03-22T02:43:23.580Z,100507.16
2023-03-22T02:46:14.401Z,100502.81
2023-03-22T02:49:10.663Z,100494.81
2023-03-22T02:51:42.575Z,100503.16
2023-03-22T02:54:20.707Z,100495.72
2023-03-22T02:56:54.326Z,100494.94
2023-03-22T02:59:23.622Z,100483.97
2023-03-22T03:01:57.337Z,100489.25
2023-03-22T03:04:29.164Z,100490.38
2023-03-22T03:07:00.678Z,100492.00
2023-03-22T03:09:28.021Z,100492.88
2023-03-22T03:11:54.816Z,100502.38
2023-03-22T03:14:32.115Z,100483.91
2023-03-22T03:17:08.445Z,100489.56
2023-03-22T03:19:49.800Z,100489.13
2023-03-22T03:22:51.323Z,100483.25
2023-03-22T03:25:46.365Z,100484.13
2023-03-22T03:28:30.264Z,100477.13
2023-03-22T03:31:06.459Z,100478.28
2023-03-22T03:33:35.903Z,100478.34
2023-03-22T03:36:06.449Z,100485.59
2023-03-22T03:38:36.752Z,100475.19
2023-03-22T03:41:08.374Z,100471.78
2023-03-22T03:43:35.854Z,100474.94
2023-03-22T03:46:03.106Z,100468.25
2023-03-22T03:48:33.248Z,100470.28
2023-03-22T03:51:01.919Z,100469.41
2023-03-22T03:53:29.750Z,100467.94
2023-03-22T03:55:56.305Z,100466.03
2023-03-22T03:58:23.094Z,100466.03
2023-03-22T04:00:50.273Z,100471.56
2023-03-22T04:03:17.223Z,100466.06
2023-03-22T04:05:44.176Z,100464.50
2023-03-22T04:08:10.630Z,100462.16
2023-03-22T04:10:37.278Z,100458.56
2023-03-22T04:13:03.968Z,100458.56
2023-03-22T04:15:30.534Z,100464.09
2023-03-22T04:17:57.320Z,100464.50
2023-03-22T04:20:26.126Z,100459.69
2023-03-22T04:22:52.741Z,100457.06
2023-03-22T04:25:19.236Z,100452.69
2023-03-22T04:27:50.958Z,100447.16
2023-03-22T04:30:21.971Z,100438.50
2023-03-22T04:32:49.629Z,100446.75
2023-03-22T04:35:16.569Z,100448.34
2023-03-22T04:37:43.140Z,100451.44
2023-03-22T04:40:17.366Z,100444.34
2023-03-22T04:42:44.807Z,100451.94
2023-03-22T04:45:12.512Z,100443.13
2023-03-22T04:47:39.254Z,100439.22
2023-03-22T04:50:08.033Z,100447.38
2023-03-22T04:52:34.694Z,100442.81
2023-03-22T04:55:01.322Z,100434.94
2023-03-22T04:57:27.887Z,100440.72
2023-03-22T04:59:54.461Z,100450.47
2023-03-22T05:02:21.163Z,100440.56
2023-03-22T05:04:47.737Z,100446.25
2023-03-22T05:07:14.299Z,100442.97
2023-03-22T05:09:40.998Z,100436.53
2023-03-22T05:12:07.570Z,100448.66
2023-03-22T05:14:34.091Z,100450.00
2023-03-22T05:17:00.614Z,100446.06
2023-03-22T05:19:27.565Z,100440.34
2023-03-22T05:21:58.306Z,100436.47
2023-03-22T05:24:25.210Z,100435.78
2023-03-22T05:26:53.862Z,100426.53
2023-03-22T05:29:21.449Z,100442.53
2023-03-22T05:31:48.430Z,100443.38
2023-03-22T05:34:15.069Z,100436.09
2023-03-22T05:36:41.623Z,100445.69
2023-03-22T05:39:08.133Z,100435.44
2023-03-22T05:41:36.498Z,100435.97
2023-03-22T05:44:04.081Z,100433.59
2023-03-22T05:46:30.921Z,100452.63
2023-03-22T05:48:57.634Z,100432.91
2023-03-22T05:51:25.757Z,100441.34
2023-03-22T05:53:53.542Z,100443.59
2023-03-22T05:56:25.760Z,100445.22
2023-03-22T05:58:52.334Z,100447.88
2023-03-22T06:01:21.484Z,100450.88
2023-03-22T06:03:48.888Z,100445.59
2023-03-22T06:06:15.827Z,100446.91
2023-03-22T06:08:42.926Z,100440.22
2023-03-22T06:11:09.742Z,100441.66
2023-03-22T06:13:37.431Z,100440.84
2023-03-22T06:16:05.577Z,100435.94
2023-03-22T06:18:32.924Z,100432.91
2023-03-22T06:20:59.516Z,100446.25
2023-03-22T06:23:26.052Z,100444.31
2023-03-22T06:25:52.529Z,100442.81
2023-03-22T06:28:19.047Z,100440.72
2023-03-22T06:30:45.760Z,100439.59
2023-03-22T06:33:12.351Z,100432.91
2023-03-22T06:35:38.943Z,100439.28
2023-03-22T06:38:05.830Z,100432.66
2023-03-22T06:40:32.328Z,100428.66
2023-03-22T06:43:01.675Z,100424.50
2023-03-22T06:45:33.380Z,100423.25
2023-03-22T06:48:00.982Z,100432.53
2023-03-22T06:50:28.985Z,100419.44
2023-03-22T06:52:55.714Z,100427.00
2023-03-22T06:55:22.375Z,100428.56
2023-03-22T06:57:48.891Z,100439.44
2023-03-22T07:00:16.028Z,100426.69
2023-03-22T07:02:42.503Z,100431.53
2023-03-22T07:05:09.343Z,100424.81
2023-03-22T07:07:35.838Z,100417.06
2023-03-22T07:10:02.406Z,100415.13
2023-03-22T07:12:28.887Z,100413.88
2023-03-22T07:14:55.599Z,100425.44
2023-03-22T07:17:22.060Z,100413.03
2023-03-22T07:19:48.922Z,100415.72
2023-03-22T07:22:15.532Z,100413.97
2023-03-22T07:24:53.865Z,100403.00
2023-03-22T07:27:23.033Z,100409.19
2023-03-22T07:29:49.533Z,100414.84
2023-03-22T07:32:16.339Z,100414.97
2023-03-22T07:34:43.016Z,100409.00
2023-03-22T07:37:09.573Z,100419.78
2023-03-22T07:39:36.256Z,100417.19
2023-03-22T07:42:03.196Z,100415.34
2023-03-22T07:44:29.711Z,100417.28
2023-03-22T07:46:56.325Z,100430.41
2023-03-22T07:49:22.948Z,100407.63
2023-03-22T07:51:49.415Z,100401.06
2023-03-22T07:54:32.194Z,100410.84
2023-03-22T07:57:02.730Z,100404.72
2023-03-22T07:59:29.241Z,100398.78
2023-03-22T08:01:55.784Z,100420.53
2023-03-22T08:04:22.740Z,100400.72
2023-03-22T08:06:49.866Z,100417.47
2023-03-22T08:09:16.586Z,100409.78
2023-03-22T08:11:43.140Z,100409.84
2023-03-22T08:14:09.998Z,100403.78
2023-03-22T08:16:36.582Z,100408.84
2023-03-22T08:19:03.187Z,100401.84
2023-03-22T08:21:32.358Z,100411.03
2023-03-22T08:23:58.813Z,100419.19
2023-03-22T08:26:26.151Z,100417.25
2023-03-22T08:28:53.219Z,100410.28
2023-03-22T08:31:20.165Z,100412.00
2023-03-22T08:33:51.125Z,100418.69
2023-03-22T08:36:22.730Z,100413.56
2023-03-22T08:38:49.550Z,100417.91
2023-03-22T08:41:16.535Z,100412.00
2023-03-22T08:43:43.275Z,100430.63
2023-03-22T08:46:10.170Z,100424.50
2023-03-22T08:48:37.948Z,100412.38
2023-03-22T08:51:06.417Z,100423.84
2023-03-22T08:53:32.996Z,100429.53
2023-03-22T08:56:01.761Z,100430.50
2023-03-22T08:58:28.495Z,100425.66
2023-03-22T09:00:55.287Z,100413.97
2023-03-22T09:03:23.942Z,100405.97
2023-03-22T09:05:51.106Z,100408.16
2023-03-22T09:08:19.501Z,100411.09
2023-03-22T09:10:51.959Z,100422.28
2023-03-22T09:13:19.628Z,100416.06
2023-03-22T09:15:46.293Z,100421.16
2023-03-22T09:18:13.364Z,100421.03
2023-03-22T09:20:40.414Z,100407.78
2023-03-22T09:23:07.114Z,100405.91
2023-03-22T09:25:33.656Z,100394.94
2023-03-22T09:28:00.157Z,100403.63
2023-03-22T09:30:27.224Z,100408.78
2023-03-22T09:32:53.817Z,100417.19
2023-03-22T09:35:20.416Z,100407.63
2023-03-22T09:37:47.457Z,100437.97
2023-03-22T09:40:14.055Z,100424.44
2023-03-22T09:42:51.253Z,100399.22
2023-03-22T09:45:30.005Z,100438.94
2023-03-22T09:47:58.949Z,100394.50
2023-03-22T09:50:29.930Z,100402.16
2023-03-22T09:52:56.414Z,100436.66
2023-03-22T09:55:39.617Z,100401.41
2023-03-22T09:58:36.017Z,100397.44
2023-03-22T10:01:05.230Z,100400.28
2023-03-22T10:03:40.728Z,100394.28
2023-03-22T10:06:21.223Z,100397.16
2023-03-22T10:09:04.619Z,100386.28
2023-03-22T10:11:51.853Z,100400.81
2023-03-22T10:14:34.222Z,100394.38
2023-03-22T10:17:06.796Z,100376.88
2023-03-22T10:19:46.553Z,100380.88
2023-03-22T10:22:16.398Z,100391.41
2023-03-22T10:24:46.344Z,100381.75
2023-03-22T10:27:17.175Z,100387.59
2023-03-22T10:29:48.435Z,100391.16
2023-03-22T10:32:18.086Z,100378.53
2023-03-22T10:34:45.485Z,100380.63
2023-03-22T10:37:20.498Z,100372.19
2023-03-22T10:39:50.870Z,100366.91
2023-03-22T10:42:22.123Z,100374.56
2023-03-22T10:44:53.633Z,100386.34
2023-03-22T10:47:31.180Z,100393.13
2023-03-22T10:50:03.502Z,100419.63
2023-03-22T10:52:49.804Z,100393.44
2023-03-22T10:55:17.329Z,100410.91
2023-03-22T10:58:26.132Z,100387.94
2023-03-22T11:00:56.864Z,100384.06
2023-03-22T11:03:35.306Z,100398.06
2023-03-22T11:06:17.418Z,100385.81
2023-03-22T11:08:52.714Z,100379.16
2023-03-22T11:11:26.978Z,100379.81
2023-03-22T11:13:58.945Z,100393.84
2023-03-22T11:16:25.857Z,100383.44
2023-03-22T11:18:52.625Z,100379.31
2023-03-22T11:21:33.116Z,100380.88
2023-03-22T11:24:13.095Z,100376.44
2023-03-22T11:26:41.636Z,100392.56
2023-03-22T11:29:14.404Z,100402.06
2023-03-22T11:31:56.099Z,100387.59
2023-03-22T11:34:26.335Z,100378.94
2023-03-22T11:36:56.829Z,100372.88
2023-03-22T11:39:28.107Z,100382.00
2023-03-22T11:42:01.827Z,100389.59
2023-03-22T11:44:34.042Z,100401.63
2023-03-22T11:47:02.616Z,100378.72
2023-03-22T11:49:50.276Z,100386.88
2023-03-22T11:52:21.772Z,100373.81
2023-03-22T11:54:49.042Z,100377.31
2023-03-22T11:57:20.396Z,100367.38
2023-03-22T11:59:48.748Z,100373.03
2023-03-22T12:02:32.510Z,100364.59
2023-03-22T12:05:14.074Z,100349.28
2023-03-22T12:07:41.387Z,100357.88
2023-03-22T12:10:21.446Z,100352.84
2023-03-22T12:12:57.274Z,100356.56
2023-03-22T12:15:31.660Z,100355.19
2023-03-22T12:18:10.924Z,100350.06
2023-03-22T12:20:47.574Z,100376.22
2023-03-22T12:23:17.871Z,100367.84
2023-03-22T12:25:50.604Z,100368.59
2023-03-22T12:28:26.124Z,100345.19
2023-03-22T12:30:56.097Z,100358.31
2023-03-22T12:33:38.935Z,100357.19
2023-03-22T12:36:07.097Z,100362.06
2023-03-22T12:38:41.122Z,100360.22
2023-03-22T12:41:12.558Z,100359.72
2023-03-22T12:43:41.780Z,100376.78
2023-03-22T12:46:16.769Z,100376.34
2023-03-22T12:48:48.512Z,100367.66
2023-03-22T12:51:15.311Z,100364.34
2023-03-22T12:53:48.897Z,100370.44
2023-03-22T12:56:35.841Z,100377.38
2023-03-22T12:59:05.835Z,100388.34
2023-03-22T13:01:58.338Z,100363.41
2023-03-22T13:04:31.721Z,100385.84
2023-03-22T13:07:15.457Z,100381.16
2023-03-22T13:09:49.984Z,100379.28
2023-03-22T13:12:16.536Z,100378.97
2023-03-22T13:14:51.881Z,100360.94
2023-03-22T13:17:24.931Z,100372.19
2023-03-22T13:19:58.701Z,100364.47
2023-03-22T13:22:38.863Z,100354.06
2023-03-22T13:25:16.670Z,100357.22
2023-03-22T13:28:03.292Z,100369.94
2023-03-22T13:30:35.593Z,100370.56
2023-03-22T13:33:08.654Z,100368.50
2023-03-22T13:35:38.602Z,100372.41
2023-03-22T13:38:10.534Z,100361.19
2023-03-22T13:41:08.400Z,100353.28
2023-03-22T13:43:50.045Z,100351.88
2023-03-22T13:46:16.618Z,100354.78
2023-03-22T13:49:01.725Z,100347.13
2023-03-22T13:51:31.790Z,100341.34
2023-03-22T13:54:16.489Z,100325.88
2023-03-22T13:56:58.362Z,100331.16
2023-03-22T13:59:28.002Z,100330.22
2023-03-22T14:01:59.528Z,100326.13
2023-03-22T14:04:34.956Z,100327.06
2023-03-22T14:07:21.669Z,100322.00
2023-03-22T14:09:56.988Z,100299.03
2023-03-22T14:12:45.407Z,100321.44
2023-03-22T14:15:19.113Z,100317.47
2023-03-22T14:17:56.720Z,100327.00
2023-03-22T14:20:30.281Z,100321.00
